Time;durP1;ratioP1;P1;durP2;ratioP2;P2;SDS_P1;SDS_P2;PMS_P1;PMS_P2;Temp;Humidity;BMP_temperature;BMP_pressure;BME280_temperature;BME280_humidity;BME280_pressure;Samples;Min_cycle;Max_cycle;Signal;HPM_P1;HPM_P2
2023/10/20 00:00:44;;;;;;;2.80;1.75;;;21.10;59.30;;;;;;5012755;28;20030;-48
2023/10/20 00:03:10;;;;;;;2.38;1.60;;;21.10;59.90;;;;;;5013501;28;20030;-49
2023/10/20 00:05:37;;;;;;;1.63;1.38;;;21.10;59.30;;;;;;5013233;28;20103;-48
2023/10/20 00:08:03;;;;;;;2.25;1.65;;;21.10;59.30;;;;;;5012004;28;20117;-51
2023/10/20 00:10:32;;;;;;;3.03;1.60;;;21.10;59.30;;;;;;5012803;28;20116;-50
2023/10/20 00:13:01;;;;;;;2.42;1.45;;;21.00;59.20;;;;;;5010605;28;20129;-52
2023/10/20 00:15:28;;;;;;;2.53;1.48;;;21.00;59.20;;;;;;5012804;28;20029;-47
2023/10/20 00:17:54;;;;;;;2.85;1.88;;;21.10;59.30;;;;;;5012955;28;20124;-46
2023/10/20 00:20:20;;;;;;;3.45;2.10;;;21.10;59.30;;;;;;5012163;28;20441;-46
2023/10/20 00:22:46;;;;;;;2.25;1.67;;;21.10;59.20;;;;;;5006322;28;20034;-50
2023/10/20 00:25:13;;;;;;;2.80;1.88;;;21.10;59.20;;;;;;5013609;28;20037;-45
2023/10/20 00:27:41;;;;;;;2.80;1.80;;;21.00;59.20;;;;;;5011953;28;20048;-46
2023/10/20 00:30:07;;;;;;;2.80;1.88;;;21.00;59.20;;;;;;5009528;28;20054;-49
2023/10/20 00:32:43;;;;;;;2.90;1.70;;;21.10;59.20;;;;;;5012111;28;20072;-47
2023/10/20 00:35:10;;;;;;;4.50;1.98;;;21.10;59.20;;;;;;5012037;28;20022;-46
2023/10/20 00:37:36;;;;;;;4.53;2.00;;;21.10;59.20;;;;;;5013045;28;20507;-51
2023/10/20 00:40:07;;;;;;;4.97;2.00;;;21.00;59.20;;;;;;5013295;28;20080;-46
2023/10/20 00:42:34;;;;;;;4.75;2.03;;;21.00;59.20;;;;;;4991852;28;20062;-52
2023/10/20 00:45:00;;;;;;;2.35;1.83;;;21.10;59.20;;;;;;5012725;28;20464;-50
2023/10/20 00:47:27;;;;;;;3.55;1.85;;;21.10;59.20;;;;;;5014850;28;20041;-48
2023/10/20 00:49:53;;;;;;;3.00;2.20;;;21.00;59.10;;;;;;5014703;28;20030;-46
2023/10/20 00:52:20;;;;;;;3.00;2.00;;;21.10;59.20;;;;;;5013247;28;20038;-47
2023/10/20 00:54:47;;;;;;;3.35;1.80;;;21.00;59.10;;;;;;5015941;28;20018;-47
2023/10/20 00:57:17;;;;;;;3.45;2.15;;;21.00;59.00;;;;;;5016330;28;20034;-48
2023/10/20 00:59:43;;;;;;;2.47;1.85;;;21.00;59.00;;;;;;5015854;28;20099;-48
2023/10/20 01:02:10;;;;;;;3.17;2.42;;;21.00;59.00;;;;;;5016415;28;20097;-47
2023/10/20 01:04:36;;;;;;;3.00;2.22;;;21.00;59.00;;;;;;5016502;28;20034;-46
2023/10/20 01:07:02;;;;;;;3.13;2.25;;;21.00;59.00;;;;;;4999782;28;20111;-46
2023/10/20 01:09:28;;;;;;;3.53;2.55;;;21.00;59.00;;;;;;4995565;28;20448;-48
2023/10/20 01:11:55;;;;;;;3.15;2.28;;;21.00;58.90;;;;;;4998802;28;20536;-49
2023/10/20 01:14:21;;;;;;;3.55;2.30;;;21.00;58.90;;;;;;5016086;28;20057;-48
2023/10/20 01:16:47;;;;;;;3.35;2.30;;;21.00;58.90;;;;;;4999249;28;21641;-47
2023/10/20 01:19:14;;;;;;;3.47;2.42;;;21.00;58.80;;;;;;5014485;28;20034;-49
2023/10/20 01:21:40;;;;;;;3.20;2.22;;;21.00;58.80;;;;;;4997778;28;20342;-49
2023/10/20 01:24:07;;;;;;;3.85;2.28;;;21.00;58.80;;;;;;4998652;28;20036;-45
2023/10/20 01:26:33;;;;;;;3.15;2.38;;;21.00;58.80;;;;;;5015527;28;20349;-47
2023/10/20 01:28:59;;;;;;;3.75;2.40;;;21.00;58.80;;;;;;5015607;28;20064;-46
2023/10/20 01:31:25;;;;;;;2.72;2.40;;;21.00;58.80;;;;;;5015295;28;20030;-52
2023/10/20 01:33:51;;;;;;;3.10;2.53;;;21.00;58.70;;;;;;5015914;28;20030;-53
2023/10/20 01:36:17;;;;;;;3.10;2.33;;;21.00;58.70;;;;;;5015541;28;20367;-48
2023/10/20 01:38:44;;;;;;;4.78;2.63;;;21.00;58.70;;;;;;5014816;28;20041;-47
2023/10/20 01:41:10;;;;;;;2.75;2.45;;;21.00;58.70;;;;;;5014831;28;20526;-48
2023/10/20 01:43:36;;;;;;;3.05;2.25;;;21.00;58.70;;;;;;5015783;28;20035;-50
2023/10/20 01:46:03;;;;;;;4.95;2.45;;;21.00;58.60;;;;;;4998190;28;20042;-50
2023/10/20 01:48:30;;;;;;;3.38;2.47;;;21.00;58.60;;;;;;5014774;28;20057;-51
2023/10/20 01:50:59;;;;;;;2.85;2.38;;;21.00;58.60;;;;;;5014884;28;20064;-45
2023/10/20 01:53:25;;;;;;;3.17;2.63;;;21.00;58.50;;;;;;5015129;28;20117;-46
2023/10/20 01:55:51;;;;;;;3.08;2.33;;;21.00;58.50;;;;;;5015244;28;20518;-51
2023/10/20 01:58:18;;;;;;;3.22;2.42;;;21.00;58.50;;;;;;4996668;28;20034;-50
2023/10/20 02:00:48;;;;;;;3.20;2.40;;;21.00;58.50;;;;;;5005388;28;20461;-46
2023/10/20 02:03:14;;;;;;;3.83;2.75;;;21.00;58.40;;;;;;4997005;28;20148;-50
2023/10/20 02:05:40;;;;;;;4.05;2.78;;;20.90;58.40;;;;;;5015081;28;20093;-51
2023/10/20 02:08:08;;;;;;;2.92;2.63;;;20.90;58.40;;;;;;4998710;28;20040;-52
2023/10/20 02:10:35;;;;;;;4.97;3.05;;;21.00;58.40;;;;;;4998680;28;20358;-48
2023/10/20 02:13:02;;;;;;;2.95;2.53;;;21.00;58.40;;;;;;5015359;28;20052;-50
2023/10/20 02:15:29;;;;;;;3.25;2.70;;;20.90;58.30;;;;;;5011843;28;20029;-48
2023/10/20 02:17:58;;;;;;;2.92;2.50;;;20.90;58.30;;;;;;4998284;28;20042;-44
2023/10/20 02:20:25;;;;;;;4.07;2.72;;;20.90;58.20;;;;;;4994729;28;20041;-52
2023/10/20 02:22:53;;;;;;;2.75;2.45;;;20.90;58.20;;;;;;4997359;28;20414;-50
2023/10/20 02:25:19;;;;;;;4.15;3.05;;;20.90;58.20;;;;;;4996789;28;20030;-48
2023/10/20 02:27:47;;;;;;;3.78;2.88;;;21.00;58.20;;;;;;5014238;28;20220;-51
2023/10/20 02:30:15;;;;;;;2.88;2.53;;;20.90;58.20;;;;;;5014328;28;20432;-47
2023/10/20 02:32:42;;;;;;;3.58;2.95;;;20.90;58.40;;;;;;4997138;28;20026;-52
2023/10/20 02:35:08;;;;;;;3.97;3.17;;;20.90;58.10;;;;;;5013561;28;20452;-50
2023/10/20 02:37:35;;;;;;;4.05;3.00;;;20.90;58.10;;;;;;5011959;28;20113;-48
2023/10/20 02:40:04;;;;;;;4.57;3.00;;;20.90;58.10;;;;;;5014522;28;20461;-50
2023/10/20 02:42:31;;;;;;;3.30;2.67;;;20.90;58.10;;;;;;5014714;28;20335;-52
2023/10/20 02:44:58;;;;;;;3.42;2.97;;;20.90;58.10;;;;;;5011713;28;20084;-48
2023/10/20 02:47:23;;;;;;;3.88;3.47;;;20.90;58.00;;;;;;5012641;28;20045;-52
2023/10/20 02:49:56;;;;;;;4.65;3.30;;;20.90;58.00;;;;;;4997054;28;20353;-53
2023/10/20 02:52:25;;;;;;;4.38;3.08;;;20.90;58.00;;;;;;5014234;28;20034;-47
2023/10/20 02:54:53;;;;;;;4.55;3.60;;;20.90;57.90;;;;;;5002807;28;20037;-46
2023/10/20 02:57:22;;;;;;;4.65;3.58;;;20.90;57.90;;;;;;5014008;28;20045;-48
2023/10/20 02:59:49;;;;;;;4.97;3.70;;;21.00;57.90;;;;;;5008397;28;20026;-50
2023/10/20 03:02:22;;;;;;;5.13;4.00;;;20.90;57.80;;;;;;5013440;28;20030;-51
2023/10/20 03:04:52;;;;;;;4.47;3.40;;;20.90;57.80;;;;;;5013953;28;20033;-51
2023/10/20 03:07:24;;;;;;;3.63;2.72;;;20.90;57.70;;;;;;4996286;28;20361;-50
2023/10/20 03:09:53;;;;;;;5.18;3.92;;;20.90;57.70;;;;;;5011489;28;20058;-49
2023/10/20 03:12:19;;;;;;;5.35;4.43;;;20.90;57.70;;;;;;4995676;28;20107;-53
2023/10/20 03:14:46;;;;;;;4.57;3.47;;;20.90;57.60;;;;;;5013428;28;20444;-51
2023/10/20 03:17:12;;;;;;;5.18;4.00;;;20.90;57.60;;;;;;5012326;28;20144;-54
2023/10/20 03:19:40;;;;;;;5.00;4.10;;;20.90;57.60;;;;;;4996280;28;20030;-54
2023/10/20 03:22:06;;;;;;;5.05;4.13;;;20.90;57.50;;;;;;5013336;28;20033;-49
2023/10/20 03:24:32;;;;;;;5.03;3.85;;;20.90;57.50;;;;;;4996407;28;20041;-52
2023/10/20 03:26:58;;;;;;;4.85;4.00;;;20.90;57.50;;;;;;4996231;28;20413;-51
2023/10/20 03:29:25;;;;;;;4.82;3.78;;;20.90;57.40;;;;;;5012128;28;20045;-53
2023/10/20 03:31:51;;;;;;;5.97;3.90;;;20.90;57.40;;;;;;5013013;28;20021;-49
2023/10/20 03:34:17;;;;;;;10.30;4.50;;;20.90;57.40;;;;;;4996190;28;20076;-44
2023/10/20 03:36:43;;;;;;;5.25;4.10;;;20.90;57.40;;;;;;5012055;28;20045;-45
2023/10/20 03:39:43;;;;;;;4.88;4.07;;;20.90;57.30;;;;;;4996255;28;20129;-48
2023/10/20 03:42:02;;;;;;;5.68;4.43;;;20.90;57.30;;;;;;5010507;28;20418;-47
2023/10/20 03:44:28;;;;;;;4.97;4.05;;;20.90;57.30;;;;;;5013005;28;20118;-48
2023/10/20 03:46:59;;;;;;;4.78;4.10;;;20.90;57.20;;;;;;4996191;28;20104;-46
2023/10/20 03:49:26;;;;;;;4.93;4.05;;;20.90;57.20;;;;;;5003434;28;20136;-51
2023/10/20 03:51:53;;;;;;;6.20;4.18;;;20.80;57.10;;;;;;5011345;28;20057;-46
2023/10/20 03:54:19;;;;;;;5.70;4.32;;;20.80;57.10;;;;;;4996014;28;20018;-47
2023/10/20 03:56:45;;;;;;;6.35;4.72;;;20.90;57.10;;;;;;5012377;28;20040;-51
2023/10/20 03:59:13;;;;;;;5.65;4.22;;;20.90;57.10;;;;;;4995647;28;20124;-51
2023/10/20 04:01:39;;;;;;;5.13;4.50;;;20.80;57.00;;;;;;5013071;28;20034;-52
2023/10/20 04:04:08;;;;;;;6.95;4.60;;;20.80;57.00;;;;;;5011490;28;20018;-49
2023/10/20 04:06:35;;;;;;;5.30;4.25;;;20.80;56.90;;;;;;5013283;28;20038;-49
2023/10/20 04:09:03;;;;;;;5.15;3.90;;;20.80;56.90;;;;;;5011227;28;20065;-53
2023/10/20 04:11:30;;;;;;;5.18;4.00;;;20.80;56.80;;;;;;5012322;28;20030;-49
2023/10/20 04:13:56;;;;;;;6.93;4.50;;;20.80;56.80;;;;;;5005654;28;20438;-52
2023/10/20 04:16:23;;;;;;;5.78;4.13;;;20.80;56.80;;;;;;5012105;28;20046;-47
2023/10/20 04:18:49;;;;;;;5.50;4.57;;;20.80;56.80;;;;;;5011280;28;20022;-50
2023/10/20 04:21:14;;;;;;;5.45;4.57;;;20.80;56.70;;;;;;5012571;28;20040;-50
2023/10/20 04:23:43;;;;;;;4.57;3.78;;;20.80;56.70;;;;;;5016895;28;20022;-50
2023/10/20 04:26:20;;;;;;;5.55;4.18;;;20.80;56.70;;;;;;5014234;28;20429;-46
2023/10/20 04:28:48;;;;;;;6.68;4.32;;;20.80;56.70;;;;;;5014907;28;20104;-45
2023/10/20 04:50:17;;;;;;;6.13;4.15;;;20.80;56.50;;;;;;5016422;28;20029;-52
2023/10/20 04:56:21;;;;;;;5.50;4.20;;;20.80;56.50;;;;;;5015445;28;20041;-53
2023/10/20 04:58:18;;;;;;;5.20;4.07;;;20.70;56.40;;;;;;5013790;28;20026;-49
2023/10/20 05:00:44;;;;;;;4.85;4.10;;;20.70;56.40;;;;;;5016302;28;20037;-53
2023/10/20 05:03:16;;;;;;;5.22;4.32;;;20.70;56.40;;;;;;5015051;28;20037;-50
2023/10/20 05:05:59;;;;;;;6.15;4.70;;;20.70;56.40;;;;;;5015083;28;20113;-50
2023/10/20 05:08:25;;;;;;;4.85;3.90;;;20.70;56.40;;;;;;5015907;28;20057;-49
2023/10/20 05:10:53;;;;;;;4.32;3.65;;;20.70;56.30;;;;;;5017617;28;20337;-50
2023/10/20 05:13:19;;;;;;;4.63;3.40;;;20.70;56.30;;;;;;5017184;28;20034;-50
2023/10/20 05:15:46;;;;;;;4.63;3.70;;;20.70;56.20;;;;;;5017145;28;20461;-52
2023/10/20 05:18:11;;;;;;;4.13;3.40;;;20.70;56.20;;;;;;5002608;28;20327;-51
2023/10/20 05:20:40;;;;;;;4.50;3.88;;;20.70;56.20;;;;;;5018283;28;20044;-49
2023/10/20 05:23:07;;;;;;;4.00;3.60;;;20.70;56.20;;;;;;5016100;28;20026;-50
2023/10/20 05:25:32;;;;;;;5.05;3.97;;;20.70;56.20;;;;;;5016150;28;20037;-49
2023/10/20 05:28:00;;;;;;;3.58;3.10;;;20.70;56.20;;;;;;5016868;28;20030;-46
2023/10/20 05:30:27;;;;;;;4.15;3.28;;;20.70;56.20;;;;;;5017306;28;20364;-51
2023/10/20 05:32:53;;;;;;;4.10;3.40;;;20.70;56.10;;;;;;5017206;28;20034;-47
2023/10/20 05:35:19;;;;;;;3.60;3.05;;;20.70;56.10;;;;;;5016211;28;20040;-47
2023/10/20 05:37:45;;;;;;;3.95;2.90;;;20.70;56.10;;;;;;5017168;28;20048;-50
2023/10/20 05:40:14;;;;;;;4.07;3.40;;;20.70;56.00;;;;;;5016061;28;20029;-50
2023/10/20 05:42:39;;;;;;;3.83;3.28;;;20.70;56.00;;;;;;5016913;28;20412;-50
2023/10/20 05:45:09;;;;;;;4.70;2.72;;;20.70;56.00;;;;;;5016644;28;20053;-50
2023/10/20 05:47:36;;;;;;;3.50;2.60;;;20.70;56.00;;;;;;4998121;28;20353;-51
2023/10/20 05:50:02;;;;;;;4.18;3.03;;;20.70;55.90;;;;;;5016209;28;20117;-51
2023/10/20 05:52:29;;;;;;;3.60;2.92;;;20.70;55.90;;;;;;5016707;28;20061;-50
2023/10/20 05:54:59;;;;;;;3.60;2.95;;;20.70;55.90;;;;;;5016128;28;20358;-46
2023/10/20 05:57:28;;;;;;;3.08;2.65;;;20.70;55.90;;;;;;5017116;28;20049;-46
2023/10/20 05:59:54;;;;;;;3.30;2.60;;;20.70;55.80;;;;;;5015334;28;20034;-48
2023/10/20 06:02:21;;;;;;;4.30;2.80;;;20.70;55.80;;;;;;5016385;28;20413;-46
2023/10/20 06:04:47;;;;;;;3.13;2.60;;;20.70;55.80;;;;;;5015971;28;20330;-49
2023/10/20 06:07:12;;;;;;;3.35;2.67;;;20.70;55.80;;;;;;5016011;28;20032;-50
2023/10/20 06:09:39;;;;;;;2.80;2.40;;;20.70;55.80;;;;;;5016141;28;20038;-50
2023/10/20 06:12:07;;;;;;;2.92;2.50;;;20.70;55.80;;;;;;5015702;28;20041;-52
2023/10/20 06:14:36;;;;;;;3.60;2.63;;;20.70;55.70;;;;;;5016092;28;20057;-50
2023/10/20 06:17:02;;;;;;;3.15;2.47;;;20.70;55.70;;;;;;5016190;28;20108;-52
2023/10/20 06:19:28;;;;;;;3.95;2.92;;;20.70;55.60;;;;;;5007486;28;20037;-53
2023/10/20 06:21:55;;;;;;;3.15;2.85;;;20.70;55.60;;;;;;5014323;28;20030;-49
2023/10/20 06:24:22;;;;;;;3.20;2.78;;;20.70;55.60;;;;;;5016159;28;20033;-46
2023/10/20 06:26:47;;;;;;;3.45;2.60;;;20.60;55.50;;;;;;5016052;28;20044;-47
2023/10/20 06:31:48;;;;;;;5.15;2.72;;;20.70;55.60;;;;;;5015500;28;20057;-53
2023/10/20 06:34:26;;;;;;;3.97;2.97;;;20.70;55.60;;;;;;5014935;28;20424;-52
2023/10/20 06:37:08;;;;;;;4.63;3.47;;;20.70;55.60;;;;;;5014050;28;20426;-52
2023/10/20 06:39:37;;;;;;;4.57;3.38;;;20.70;55.60;;;;;;5015744;28;20034;-52
2023/10/20 06:42:03;;;;;;;4.15;3.33;;;20.60;55.50;;;;;;5014673;28;20033;-51
2023/10/20 06:44:30;;;;;;;5.22;3.13;;;20.70;55.50;;;;;;5015179;28;20112;-50
2023/10/20 06:46:56;;;;;;;4.45;3.58;;;20.60;55.40;;;;;;5015283;28;20513;-45
2023/10/20 06:49:23;;;;;;;5.50;3.45;;;20.60;55.40;;;;;;5014666;28;20042;-51
2023/10/20 06:51:49;;;;;;;4.53;3.72;;;20.60;55.40;;;;;;5015510;28;20064;-47
2023/10/20 06:54:16;;;;;;;4.97;3.25;;;20.70;55.30;;;;;;5014966;28;20029;-47
2023/10/20 06:56:42;;;;;;;4.55;3.70;;;20.60;55.30;;;;;;5015389;28;20421;-48
2023/10/20 06:59:12;;;;;;;5.00;3.58;;;20.60;55.20;;;;;;5015694;28;20026;-49
2023/10/20 07:01:38;;;;;;;5.38;3.42;;;20.60;55.10;;;;;;5013380;28;20107;-47
2023/10/20 07:04:06;;;;;;;4.10;3.20;;;20.60;55.10;;;;;;5016008;28;20127;-47
2023/10/20 07:06:32;;;;;;;4.70;3.28;;;20.60;55.10;;;;;;5015141;28;20092;-45
2023/10/20 07:08:58;;;;;;;4.40;3.20;;;20.60;55.10;;;;;;5014892;28;20054;-47
2023/10/20 07:11:26;;;;;;;4.50;3.20;;;20.60;55.10;;;;;;5013053;28;20029;-50
2023/10/20 07:13:52;;;;;;;3.60;2.70;;;20.60;55.10;;;;;;5015512;28;20057;-48
2023/10/20 07:16:18;;;;;;;4.00;3.25;;;20.60;55.10;;;;;;5014873;28;20113;-51
2023/10/20 07:18:44;;;;;;;5.35;3.53;;;20.60;55.10;;;;;;5014071;28;20046;-47
2023/10/20 07:21:10;;;;;;;3.47;2.95;;;20.60;55.10;;;;;;5014207;28;20037;-46
2023/10/20 07:23:35;;;;;;;4.95;3.35;;;20.60;55.10;;;;;;5014463;28;20100;-45
2023/10/20 07:26:01;;;;;;;5.35;3.05;;;20.60;55.20;;;;;;5013168;28;20514;-47
2023/10/20 07:28:27;;;;;;;3.53;3.13;;;20.60;55.30;;;;;;5013516;28;20088;-51
2023/10/20 07:30:53;;;;;;;5.15;3.00;;;20.60;55.20;;;;;;5013220;28;20083;-51
2023/10/20 07:33:20;;;;;;;4.20;2.90;;;20.60;55.10;;;;;;5013382;28;20108;-52
2023/10/20 07:35:46;;;;;;;4.43;2.60;;;20.60;55.00;;;;;;5015058;28;20021;-49
2023/10/20 07:38:17;;;;;;;3.55;2.72;;;20.60;55.00;;;;;;5014752;28;20022;-49
2023/10/20 07:40:42;;;;;;;3.97;2.88;;;20.60;54.90;;;;;;4997615;28;20022;-48
2023/10/20 07:43:08;;;;;;;4.03;2.85;;;20.60;54.80;;;;;;5014122;28;20160;-50
2023/10/20 07:45:40;;;;;;;3.67;2.50;;;20.60;55.40;;;;;;5002125;28;20045;-51
2023/10/20 07:48:06;;;;;;;3.45;2.17;;;20.50;54.60;;;;;;4995115;28;20357;-47
2023/10/20 07:50:32;;;;;;;2.92;2.20;;;20.60;54.60;;;;;;4995165;28;20039;-48
2023/10/20 07:52:57;;;;;;;3.22;1.95;;;20.60;54.60;;;;;;5003608;28;20040;-51
2023/10/20 07:55:23;;;;;;;2.88;1.90;;;20.60;54.50;;;;;;5013155;28;20029;-49
2023/10/20 07:57:49;;;;;;;2.58;2.00;;;20.60;54.50;;;;;;5009485;28;20052;-45
2023/10/20 08:00:15;;;;;;;2.03;1.60;;;20.60;54.40;;;;;;5013269;28;20054;-47
2023/10/20 08:02:41;;;;;;;3.17;1.58;;;20.50;54.30;;;;;;5012737;28;20049;-50
2023/10/20 08:05:08;;;;;;;2.35;1.65;;;20.60;54.30;;;;;;5013054;28;20032;-51
2023/10/20 08:07:34;;;;;;;2.63;1.40;;;20.50;54.10;;;;;;5011929;28;20095;-51
2023/10/20 08:10:00;;;;;;;2.03;1.70;;;20.50;54.10;;;;;;5010317;28;20413;-47
2023/10/20 08:12:26;;;;;;;2.05;1.50;;;20.50;54.00;;;;;;5012827;28;20025;-50
2023/10/20 08:14:52;;;;;;;1.40;1.10;;;20.50;54.00;;;;;;5012787;28;20323;-47
2023/10/20 08:17:17;;;;;;;1.80;1.52;;;20.50;54.20;;;;;;5009707;28;20064;-48
2023/10/20 08:19:44;;;;;;;1.40;1.20;;;20.50;53.90;;;;;;5009412;28;20391;-48
2023/10/20 08:22:10;;;;;;;1.83;1.30;;;20.50;53.80;;;;;;5006770;28;20118;-49
2023/10/20 08:24:36;;;;;;;2.58;1.30;;;20.50;53.80;;;;;;5009947;28;20385;-51
2023/10/20 08:27:02;;;;;;;1.40;1.10;;;20.50;54.40;;;;;;5012402;28;20033;-47
2023/10/20 08:29:28;;;;;;;1.50;1.17;;;20.50;53.70;;;;;;5012534;28;20049;-52
2023/10/20 08:31:53;;;;;;;1.75;0.93;;;20.50;53.70;;;;;;5013142;28;20057;-50
2023/10/20 08:34:20;;;;;;;1.73;1.10;;;20.50;53.60;;;;;;5010738;28;20036;-49
2023/10/20 08:36:46;;;;;;;1.08;0.80;;;20.50;53.60;;;;;;5011751;28;20022;-52
2023/10/20 08:39:19;;;;;;;1.73;1.10;;;20.50;53.60;;;;;;5009463;28;20029;-50
2023/10/20 08:41:45;;;;;;;1.13;0.95;;;20.50;53.50;;;;;;5010910;28;20048;-50
2023/10/20 08:44:14;;;;;;;1.13;0.77;;;20.50;53.50;;;;;;5009028;28;20165;-51
2023/10/20 08:46:40;;;;;;;1.88;0.80;;;20.50;53.60;;;;;;5008588;28;20065;-52
2023/10/20 08:49:08;;;;;;;3.35;1.10;;;20.50;53.60;;;;;;5010034;28;20060;-51
2023/10/20 08:51:37;;;;;;;1.35;0.98;;;20.50;53.50;;;;;;5010632;28;20164;-53
2023/10/20 08:54:06;;;;;;;1.20;0.90;;;20.50;53.50;;;;;;5008599;28;20065;-52
2023/10/20 08:56:32;;;;;;;2.25;1.17;;;20.50;53.40;;;;;;5010031;28;20040;-52
2023/10/20 08:58:58;;;;;;;1.10;0.85;;;20.50;53.40;;;;;;5009558;28;20037;-48
2023/10/20 09:01:24;;;;;;;1.50;1.02;;;20.50;53.40;;;;;;5011871;28;20034;-52
2023/10/20 09:03:54;;;;;;;1.15;0.82;;;20.50;53.30;;;;;;5010284;28;20029;-49
2023/10/20 09:06:25;;;;;;;0.95;0.85;;;20.50;53.30;;;;;;5010039;28;20753;-52
2023/10/20 09:08:52;;;;;;;0.70;0.60;;;20.50;53.20;;;;;;5012327;28;20041;-50
2023/10/20 09:11:19;;;;;;;1.00;0.75;;;20.50;53.20;;;;;;5013348;28;20033;-49
2023/10/20 09:13:47;;;;;;;0.75;0.63;;;20.50;53.10;;;;;;5014464;28;20129;-50
2023/10/20 09:16:14;;;;;;;0.60;0.60;;;20.50;53.10;;;;;;5011893;28;20045;-50
2023/10/20 09:18:43;;;;;;;1.10;0.65;;;20.50;53.10;;;;;;5013356;28;20030;-51
2023/10/20 09:21:10;;;;;;;1.08;0.80;;;20.50;53.00;;;;;;5012723;28;20025;-50
2023/10/20 09:23:36;;;;;;;0.57;0.57;;;20.50;53.00;;;;;;5014103;28;20105;-52
2023/10/20 09:26:02;;;;;;;0.68;0.50;;;20.50;53.00;;;;;;5013472;28;20026;-51
2023/10/20 09:28:29;;;;;;;0.98;0.70;;;20.50;52.90;;;;;;5013860;28;20442;-48
2023/10/20 09:30:55;;;;;;;0.75;0.50;;;20.40;52.80;;;;;;5012740;28;20421;-49
2023/10/20 09:33:23;;;;;;;0.90;0.80;;;20.50;52.80;;;;;;5013613;28;20116;-48
2023/10/20 09:35:50;;;;;;;0.60;0.60;;;20.40;52.70;;;;;;5013383;28;20034;-45
2023/10/20 09:38:24;;;;;;;1.10;0.60;;;20.40;52.70;;;;;;4995964;28;20034;-51
2023/10/20 09:40:57;;;;;;;0.40;0.40;;;20.50;52.80;;;;;;5012134;28;20084;-51
2023/10/20 09:43:31;;;;;;;0.55;0.50;;;20.40;52.70;;;;;;5013756;28;20096;-50
2023/10/20 09:46:12;;;;;;;0.88;0.60;;;20.40;52.70;;;;;;5012583;28;20026;-51
2023/10/20 09:48:40;;;;;;;0.57;0.38;;;20.40;52.70;;;;;;5012663;28;20052;-49
2023/10/20 09:51:08;;;;;;;0.98;0.63;;;20.40;52.90;;;;;;5012842;28;20034;-50
2023/10/20 09:53:35;;;;;;;0.68;0.60;;;20.40;53.00;;;;;;5013062;28;20026;-51
2023/10/20 09:56:01;;;;;;;1.25;0.45;;;20.50;53.20;;;;;;5012620;28;20045;-49
2023/10/20 09:58:32;;;;;;;1.40;0.55;;;20.50;53.30;;;;;;5013210;28;20033;-46
2023/10/20 10:00:58;;;;;;;0.82;0.50;;;20.50;53.40;;;;;;5012544;28;20322;-49
2023/10/20 10:03:45;;;;;;;0.55;0.50;;;20.50;53.40;;;;;;5011339;28;20041;-48
2023/10/20 10:06:16;;;;;;;0.68;0.52;;;20.50;53.30;;;;;;5012153;28;20030;-45
2023/10/20 10:08:43;;;;;;;1.15;0.60;;;20.50;53.30;;;;;;5012207;28;20470;-44
2023/10/20 10:11:28;;;;;;;0.63;0.55;;;20.40;53.20;;;;;;5013008;28;20030;-49
2023/10/20 10:13:54;;;;;;;;;;;20.50;53.20;;;;;;5012325;28;20038;-49
2023/10/20 10:16:23;;;;;;;1.45;0.68;;;20.50;53.20;;;;;;5012748;28;20016;-46
2023/10/20 10:18:50;;;;;;;1.38;0.47;;;20.40;53.10;;;;;;5013136;28;20049;-47
2023/10/20 10:21:29;;;;;;;0.57;0.38;;;20.40;53.10;;;;;;5011856;28;20157;-44
2023/10/20 10:24:18;;;;;;;0.45;0.40;;;20.40;53.10;;;;;;5011291;28;20041;-48
2023/10/20 10:26:46;;;;;;;0.85;0.40;;;20.40;53.00;;;;;;5010155;28;20027;-49
2023/10/20 10:29:12;;;;;;;0.88;0.43;;;20.40;53.00;;;;;;5012864;28;20120;-50
2023/10/20 10:31:38;;;;;;;0.70;0.40;;;20.40;53.10;;;;;;5012315;28;20037;-46
2023/10/20 10:34:04;;;;;;;0.60;0.52;;;20.40;53.20;;;;;;5012246;28;20034;-50
2023/10/20 10:36:41;;;;;;;4.47;0.52;;;20.40;53.40;;;;;;5012331;28;20041;-49
2023/10/20 10:39:07;;;;;;;4.80;1.13;;;20.40;53.50;;;;;;5011188;28;20044;-45
2023/10/20 10:41:33;;;;;;;3.63;0.80;;;20.50;53.70;;;;;;5012197;28;20034;-52
2023/10/20 10:43:58;;;;;;;6.43;0.80;;;20.50;53.80;;;;;;5014503;28;20036;-53
2023/10/20 10:46:34;;;;;;;3.53;0.60;;;20.50;53.80;;;;;;5015888;28;20034;-47
2023/10/20 10:49:12;;;;;;;1.63;0.52;;;20.50;53.70;;;;;;5015186;28;20044;-50
2023/10/20 10:51:47;;;;;;;2.42;0.80;;;20.50;53.70;;;;;;5015170;28;20076;-51
2023/10/20 10:54:13;;;;;;;1.77;0.75;;;20.50;53.60;;;;;;5015137;28;20368;-50
2023/10/20 10:56:42;;;;;;;1.77;0.57;;;20.50;53.70;;;;;;5015316;28;20141;-46
2023/10/20 10:59:10;;;;;;;2.65;0.70;;;20.50;53.80;;;;;;5012488;28;20048;-49
2023/10/20 11:01:40;;;;;;;1.85;0.43;;;20.50;53.80;;;;;;5014357;28;20544;-50
2023/10/20 11:04:10;;;;;;;1.10;0.60;;;20.50;53.70;;;;;;5014081;28;20069;-48
2023/10/20 11:06:38;;;;;;;1.05;0.40;;;20.50;53.70;;;;;;5014022;28;20037;-50
2023/10/20 11:09:11;;;;;;;0.75;0.40;;;20.50;53.60;;;;;;5015408;28;20131;-48
2023/10/20 11:11:39;;;;;;;0.80;0.60;;;20.50;53.50;;;;;;5015577;28;20021;-48
2023/10/20 11:14:05;;;;;;;0.98;0.45;;;20.50;53.40;;;;;;5015532;28;20034;-51
2023/10/20 11:16:36;;;;;;;2.15;0.57;;;20.50;53.40;;;;;;5014670;28;20041;-48
2023/10/20 11:19:02;;;;;;;1.02;0.30;;;20.50;53.30;;;;;;5009300;28;20440;-53
2023/10/20 11:21:29;;;;;;;0.50;0.50;;;20.50;53.30;;;;;;4991017;28;20034;-52
2023/10/20 11:23:58;;;;;;;0.70;0.50;;;20.50;53.40;;;;;;5006917;28;20322;-49
2023/10/20 11:26:25;;;;;;;0.40;0.30;;;20.40;53.50;;;;;;5014346;28;20364;-51
2023/10/20 11:28:51;;;;;;;0.75;0.38;;;20.40;53.70;;;;;;5012710;28;20041;-45
2023/10/20 11:31:19;;;;;;;2.70;0.50;;;20.50;53.80;;;;;;5013025;28;20030;-54
2023/10/20 11:33:45;;;;;;;0.63;0.22;;;20.50;54.00;;;;;;5013868;28;20326;-52
2023/10/20 11:36:19;;;;;;;0.85;0.30;;;20.50;54.00;;;;;;5004358;28;20342;-52
2023/10/20 11:38:46;;;;;;;0.40;0.40;;;20.50;54.00;;;;;;5011014;28;20029;-48
2023/10/20 11:41:12;;;;;;;1.35;0.32;;;20.50;54.00;;;;;;5012041;28;20040;-51
2023/10/20 11:43:40;;;;;;;0.85;0.25;;;20.50;53.80;;;;;;5014494;28;20116;-46
2023/10/20 11:46:10;;;;;;;0.57;0.32;;;20.60;53.70;;;;;;5013288;28;20033;-47
2023/10/20 11:48:36;;;;;;;0.43;0.30;;;20.70;53.60;;;;;;5012493;28;20073;-45
2023/10/20 11:51:02;;;;;;;0.47;0.30;;;20.70;53.30;;;;;;5012335;28;20026;-44
2023/10/20 11:53:28;;;;;;;0.60;0.40;;;20.90;53.10;;;;;;5013154;28;20029;-51
2023/10/20 11:55:55;;;;;;;0.50;0.30;;;20.90;52.80;;;;;;5009095;28;20037;-52
2023/10/20 11:58:21;;;;;;;0.63;0.38;;;20.90;52.60;;;;;;5010589;28;20041;-46
2023/10/20 12:00:47;;;;;;;0.35;0.30;;;21.00;52.30;;;;;;5006140;28;20401;-47
2023/10/20 12:03:14;;;;;;;1.27;0.30;;;21.10;52.20;;;;;;5008334;28;20030;-47
2023/10/20 12:05:40;;;;;;;0.75;0.45;;;21.10;52.40;;;;;;5012063;28;20129;-49
2023/10/20 12:08:06;;;;;;;0.68;0.30;;;21.10;52.50;;;;;;5005117;28;20037;-49
2023/10/20 12:10:32;;;;;;;0.60;0.30;;;21.10;52.50;;;;;;5004333;28;20044;-48
2023/10/20 12:13:02;;;;;;;0.30;0.20;;;21.20;52.50;;;;;;5006203;28;20030;-49
2023/10/20 12:15:30;;;;;;;0.40;0.40;;;21.20;52.40;;;;;;5004280;28;20030;-51
2023/10/20 12:17:57;;;;;;;0.60;0.38;;;21.30;52.40;;;;;;5003816;28;20546;-52
2023/10/20 12:20:24;;;;;;;0.68;0.38;;;21.40;52.30;;;;;;5006014;28;20034;-53
2023/10/20 12:22:55;;;;;;;0.57;0.40;;;21.40;52.10;;;;;;5001856;28;20196;-55
2023/10/20 12:25:21;;;;;;;0.93;0.40;;;21.40;52.00;;;;;;5006188;28;20026;-57
2023/10/20 12:27:47;;;;;;;0.57;0.32;;;21.50;51.90;;;;;;5005429;28;20780;-53
2023/10/20 12:30:15;;;;;;;1.10;0.40;;;21.50;51.70;;;;;;5005870;28;22014;-48
2023/10/20 12:32:43;;;;;;;1.02;0.30;;;21.60;51.50;;;;;;5006326;28;20038;-52
2023/10/20 12:35:12;;;;;;;0.35;0.35;;;21.60;51.30;;;;;;5009814;28;20590;-46
2023/10/20 12:37:38;;;;;;;0.55;0.40;;;21.60;51.10;;;;;;5009935;28;20425;-52
2023/10/20 12:40:05;;;;;;;0.40;0.30;;;21.60;51.00;;;;;;5009242;28;20022;-51
2023/10/20 12:42:36;;;;;;;0.30;0.30;;;21.60;51.00;;;;;;5009467;28;20029;-52
2023/10/20 12:45:04;;;;;;;0.63;0.30;;;21.50;51.00;;;;;;5013782;28;20129;-51
2023/10/20 12:47:32;;;;;;;0.73;0.40;;;21.40;51.10;;;;;;5013772;28;20457;-52
2023/10/20 12:49:58;;;;;;;2.03;0.40;;;21.40;51.20;;;;;;5014875;28;20115;-50
2023/10/20 12:52:24;;;;;;;0.40;0.40;;;21.40;51.30;;;;;;5013268;28;20046;-53
2023/10/20 12:54:51;;;;;;;0.30;0.28;;;21.30;51.30;;;;;;5013085;28;20080;-47
2023/10/20 12:57:16;;;;;;;0.25;0.20;;;21.30;51.40;;;;;;5013271;28;20038;-52
2023/10/20 12:59:43;;;;;;;0.60;0.22;;;21.20;52.10;;;;;;5012451;28;21916;-53
2023/10/20 13:02:09;;;;;;;1.67;0.45;;;21.10;51.50;;;;;;5012330;28;20037;-53
2023/10/20 13:04:35;;;;;;;0.60;0.30;;;21.10;51.70;;;;;;5013445;28;20116;-51
2023/10/20 13:07:04;;;;;;;1.08;0.30;;;21.10;51.70;;;;;;5011996;28;20464;-51
2023/10/20 13:09:30;;;;;;;0.35;0.30;;;21.10;51.80;;;;;;5013220;28;20390;-52
2023/10/20 13:11:57;;;;;;;1.35;0.60;;;21.00;51.90;;;;;;5013399;28;20061;-52
2023/10/20 13:14:23;;;;;;;0.38;0.20;;;21.00;51.90;;;;;;5010966;28;20457;-50